sensor_id;sensor_type;location;lat;lon;timestamp;pressure;altitude;pressure_sealevel;temperature;humidity
71043;BME280;58696;52.134;5.500;2023-02-04T00:00:10;103403.38;;;7.52;80.33
71043;BME280;58696;52.134;5.500;2023-02-04T00:02:42;103411.88;;;7.52;80.18
71043;BME280;58696;52.134;5.500;2023-02-04T00:05:09;103404.09;;;7.54;80.25
71043;BME280;58696;52.134;5.500;2023-02-04T00:07:36;103398.97;;;7.54;80.15
71043;BME280;58696;52.134;5.500;2023-02-04T00:10:04;103405.00;;;7.53;79.86
71043;BME280;58696;52.134;5.500;2023-02-04T00:12:33;103410.13;;;7.53;79.87
71043;BME280;58696;52.134;5.500;2023-02-04T00:15:01;103413.50;;;7.53;80.07
71043;BME280;58696;52.134;5.500;2023-02-04T00:17:27;103413.63;;;7.52;79.97
71043;BME280;58696;52.134;5.500;2023-02-04T00:19:54;103415.34;;;7.51;79.99
71043;BME280;58696;52.134;5.500;2023-02-04T00:22:21;103417.91;;;7.51;79.87
71043;BME280;58696;52.134;5.500;2023-02-04T00:24:47;103418.84;;;7.50;80.20
71043;BME280;58696;52.134;5.500;2023-02-04T00:27:16;103420.56;;;7.50;80.22
71043;BME280;58696;52.134;5.500;2023-02-04T00:29:45;103428.34;;;7.48;80.34
71043;BME280;58696;52.134;5.500;2023-02-04T00:32:11;103428.44;;;7.47;80.45
71043;BME280;58696;52.134;5.500;2023-02-04T00:34:38;103423.31;;;7.47;80.68
71043;BME280;58696;52.134;5.500;2023-02-04T00:37:05;103426.81;;;7.46;80.45
71043;BME280;58696;52.134;5.500;2023-02-04T00:39:33;103426.81;;;7.46;80.42
71043;BME280;58696;52.134;5.500;2023-02-04T00:41:59;103437.03;;;7.46;80.33
71043;BME280;58696;52.134;5.500;2023-02-04T00:44:26;103437.03;;;7.46;80.80
71043;BME280;58696;52.134;5.500;2023-02-04T00:46:53;103432.81;;;7.45;80.36
71043;BME280;58696;52.134;5.500;2023-02-04T00:49:20;103438.78;;;7.45;80.66
71043;BME280;58696;52.134;5.500;2023-02-04T00:51:47;103429.53;;;7.43;80.82
71043;BME280;58696;52.134;5.500;2023-02-04T00:54:14;103434.75;;;7.41;80.85
71043;BME280;58696;52.134;5.500;2023-02-04T00:56:44;103433.22;;;7.38;80.86
71043;BME280;58696;52.134;5.500;2023-02-04T00:59:11;103430.03;;;7.35;80.78
71043;BME280;58696;52.134;5.500;2023-02-04T01:01:38;103427.88;;;7.29;80.92
71043;BME280;58696;52.134;5.500;2023-02-04T01:04:06;103442.69;;;7.24;80.91
71043;BME280;58696;52.134;5.500;2023-02-04T01:06:33;103449.72;;;7.20;81.27
71043;BME280;58696;52.134;5.500;2023-02-04T01:09:00;103445.69;;;7.16;81.83
71043;BME280;58696;52.134;5.500;2023-02-04T01:11:28;103447.66;;;7.13;82.00
71043;BME280;58696;52.134;5.500;2023-02-04T01:13:58;103448.75;;;7.08;82.15
71043;BME280;58696;52.134;5.500;2023-02-04T01:16:24;103456.50;;;7.07;82.25
71043;BME280;58696;52.134;5.500;2023-02-04T01:18:53;103460.78;;;7.06;82.56
71043;BME280;58696;52.134;5.500;2023-02-04T01:21:22;103459.25;;;7.04;82.64
71043;BME280;58696;52.134;5.500;2023-02-04T01:23:49;103467.03;;;7.02;82.91
71043;BME280;58696;52.134;5.500;2023-02-04T01:26:17;103467.09;;;7.01;83.30
71043;BME280;58696;52.134;5.500;2023-02-04T01:28:45;103466.38;;;6.99;83.16
71043;BME280;58696;52.134;5.500;2023-02-04T01:31:12;103476.78;;;6.96;83.50
71043;BME280;58696;52.134;5.500;2023-02-04T01:33:41;103482.91;;;6.93;83.72
71043;BME280;58696;52.134;5.500;2023-02-04T01:36:10;103475.50;;;6.89;84.00
71043;BME280;58696;52.134;5.500;2023-02-04T01:38:36;103479.09;;;6.86;84.28
71043;BME280;58696;52.134;5.500;2023-02-04T01:44:27;103494.03;;;6.78;84.58
71043;BME280;58696;52.134;5.500;2023-02-04T01:46:54;103503.44;;;6.77;84.91
71043;BME280;58696;52.134;5.500;2023-02-04T01:49:24;103504.28;;;6.78;85.03
71043;BME280;58696;52.134;5.500;2023-02-04T01:51:51;103496.69;;;6.76;85.47
71043;BME280;58696;52.134;5.500;2023-02-04T01:54:18;103508.66;;;6.76;85.74
71043;BME280;58696;52.134;5.500;2023-02-04T01:56:48;103505.28;;;6.75;85.75
71043;BME280;58696;52.134;5.500;2023-02-04T01:59:17;103515.31;;;6.78;85.94
71043;BME280;58696;52.134;5.500;2023-02-04T02:01:50;103517.97;;;6.77;86.31
71043;BME280;58696;52.134;5.500;2023-02-04T02:04:23;103522.25;;;6.76;86.44
71043;BME280;58696;52.134;5.500;2023-02-04T02:06:56;103517.06;;;6.78;86.61
71043;BME280;58696;52.134;5.500;2023-02-04T02:09:25;103514.50;;;6.78;86.72
71043;BME280;58696;52.134;5.500;2023-02-04T02:11:52;103517.88;;;6.78;86.55
71043;BME280;58696;52.134;5.500;2023-02-04T02:14:20;103517.97;;;6.77;86.74
71043;BME280;58696;52.134;5.500;2023-02-04T02:16:48;103523.91;;;6.77;86.93
71043;BME280;58696;52.134;5.500;2023-02-04T02:19:18;103517.97;;;6.77;87.01
71043;BME280;58696;52.134;5.500;2023-02-04T02:21:52;103519.81;;;6.75;87.06
71043;BME280;58696;52.134;5.500;2023-02-04T02:24:29;103518.22;;;6.72;87.26
71043;BME280;58696;52.134;5.500;2023-02-04T02:26:59;103515.69;;;6.72;87.42
71043;BME280;58696;52.134;5.500;2023-02-04T02:29:27;103521.72;;;6.71;87.56
71043;BME280;58696;52.134;5.500;2023-02-04T02:31:57;103520.16;;;6.69;87.59
71043;BME280;58696;52.134;5.500;2023-02-04T02:34:28;103518.59;;;6.66;87.82
71043;BME280;58696;52.134;5.500;2023-02-04T02:36:56;103525.63;;;6.63;87.89
71043;BME280;58696;52.134;5.500;2023-02-04T02:39:25;103520.97;;;6.55;88.21
71043;BME280;58696;52.134;5.500;2023-02-04T02:41:53;103523.97;;;6.47;88.27
71043;BME280;58696;52.134;5.500;2023-02-04T02:44:20;103520.09;;;6.40;88.47
71043;BME280;58696;52.134;5.500;2023-02-04T02:46:47;103528.22;;;6.32;88.17
71043;BME280;58696;52.134;5.500;2023-02-04T02:49:16;103528.56;;;6.26;88.67
71043;BME280;58696;52.134;5.500;2023-02-04T02:51:51;103514.31;;;6.22;88.94
71043;BME280;58696;52.134;5.500;2023-02-04T02:54:27;103527.59;;;6.13;89.17
71043;BME280;58696;52.134;5.500;2023-02-04T02:57:00;103530.50;;;6.07;89.41
71043;BME280;58696;52.134;5.500;2023-02-04T02:59:27;103535.03;;;6.02;89.51
71043;BME280;58696;52.134;5.500;2023-02-04T03:02:00;103532.75;;;5.97;89.87
71043;BME280;58696;52.134;5.500;2023-02-04T03:04:31;103544.16;;;5.90;90.00
71043;BME280;58696;52.134;5.500;2023-02-04T03:07:00;103540.38;;;5.81;90.05
71043;BME280;58696;52.134;5.500;2023-02-04T03:09:35;103536.44;;;5.76;90.24
71043;BME280;58696;52.134;5.500;2023-02-04T03:12:05;103547.06;;;5.68;90.35
71043;BME280;58696;52.134;5.500;2023-02-04T03:14:33;103541.47;;;5.62;90.60
71043;BME280;58696;52.134;5.500;2023-02-04T03:17:01;103542.53;;;5.58;90.81
71043;BME280;58696;52.134;5.500;2023-02-04T03:19:32;103545.28;;;5.54;90.81
71043;BME280;58696;52.134;5.500;2023-02-04T03:21:59;103545.19;;;5.56;90.89
71043;BME280;58696;52.134;5.500;2023-02-04T03:24:29;103545.91;;;5.58;91.11
71043;BME280;58696;52.134;5.500;2023-02-04T03:26:57;103540.00;;;5.58;91.26
71043;BME280;58696;52.134;5.500;2023-02-04T03:29:23;103546.75;;;5.59;91.24
71043;BME280;58696;52.134;5.500;2023-02-04T03:31:52;103549.28;;;5.59;91.31
71043;BME280;58696;52.134;5.500;2023-02-04T03:34:51;103553.56;;;5.58;91.67
71043;BME280;58696;52.134;5.500;2023-02-04T03:37:18;103555.38;;;5.56;91.54
71043;BME280;58696;52.134;5.500;2023-02-04T03:39:44;103560.72;;;5.51;91.52
71043;BME280;58696;52.134;5.500;2023-02-04T03:42:11;103557.59;;;5.46;91.70
71043;BME280;58696;52.134;5.500;2023-02-04T03:44:37;103565.56;;;5.40;91.75
71043;BME280;58696;52.134;5.500;2023-02-04T03:47:04;103564.31;;;5.32;91.81
71043;BME280;58696;52.134;5.500;2023-02-04T03:49:33;103558.72;;;5.25;92.00
71043;BME280;58696;52.134;5.500;2023-02-04T03:52:03;103558.91;;;5.22;91.89
71043;BME280;58696;52.134;5.500;2023-02-04T03:54:31;103562.28;;;5.22;91.95
71043;BME280;58696;52.134;5.500;2023-02-04T03:56:58;103569.91;;;5.22;92.38
71043;BME280;58696;52.134;5.500;2023-02-04T03:59:25;103565.69;;;5.21;92.49
71043;BME280;58696;52.134;5.500;2023-02-04T04:01:54;103560.53;;;5.23;92.87
71043;BME280;58696;52.134;5.500;2023-02-04T04:04:21;103565.63;;;5.23;92.78
71043;BME280;58696;52.134;5.500;2023-02-04T04:06:49;103577.63;;;5.21;92.72
71043;BME280;58696;52.134;5.500;2023-02-04T04:09:16;103569.25;;;5.19;92.87
71043;BME280;58696;52.134;5.500;2023-02-04T04:11:45;103572.63;;;5.19;93.19
71043;BME280;58696;52.134;5.500;2023-02-04T04:14:14;103570.78;;;5.21;93.10
71043;BME280;58696;52.134;5.500;2023-02-04T04:16:42;103573.19;;;5.24;93.16
71043;BME280;58696;52.134;5.500;2023-02-04T04:19:08;103574.03;;;5.25;93.02
71043;BME280;58696;52.134;5.500;2023-02-04T04:21:35;103575.59;;;5.27;92.96
71043;BME280;58696;52.134;5.500;2023-02-04T04:24:02;103569.41;;;5.32;93.18
71043;BME280;58696;52.134;5.500;2023-02-04T04:26:31;103565.72;;;5.37;92.94
71043;BME280;58696;52.134;5.500;2023-02-04T04:28:58;103570.59;;;5.42;93.17
71043;BME280;58696;52.134;5.500;2023-02-04T04:31:28;103572.91;;;5.46;93.09
71043;BME280;58696;52.134;5.500;2023-02-04T04:33:58;103571.25;;;5.45;93.24
71043;BME280;58696;52.134;5.500;2023-02-04T04:36:25;103571.16;;;5.47;93.03
71043;BME280;58696;52.134;5.500;2023-02-04T04:38:51;103571.91;;;5.49;93.08
71043;BME280;58696;52.134;5.500;2023-02-04T04:41:18;103562.69;;;5.46;93.14
71043;BME280;58696;52.134;5.500;2023-02-04T04:43:51;103574.72;;;5.44;93.22
71043;BME280;58696;52.134;5.500;2023-02-04T04:46:18;103584.34;;;5.39;93.03
71043;BME280;58696;52.134;5.500;2023-02-04T04:48:46;103590.50;;;5.35;92.94
71043;BME280;58696;52.134;5.500;2023-02-04T04:51:15;103593.38;;;5.29;93.07
71043;BME280;58696;52.134;5.500;2023-02-04T04:53:42;103594.41;;;5.25;92.81
71043;BME280;58696;52.134;5.500;2023-02-04T04:56:09;103595.47;;;5.21;92.76
71043;BME280;58696;52.134;5.500;2023-02-04T04:58:37;103591.50;;;5.15;93.13
71043;BME280;58696;52.134;5.500;2023-02-04T05:01:04;103597.75;;;5.10;93.06
71043;BME280;58696;52.134;5.500;2023-02-04T05:03:32;103596.34;;;5.04;93.30
71043;BME280;58696;52.134;5.500;2023-02-04T05:06:01;103603.16;;;5.04;93.29
71043;BME280;58696;52.134;5.500;2023-02-04T05:08:28;103593.19;;;4.99;93.26
71043;BME280;58696;52.134;5.500;2023-02-04T05:10:55;103593.41;;;4.94;93.30
71043;BME280;58696;52.134;5.500;2023-02-04T05:13:22;103597.84;;;4.91;93.31
71043;BME280;58696;52.134;5.500;2023-02-04T05:15:50;103598.91;;;4.87;93.37
71043;BME280;58696;52.134;5.500;2023-02-04T05:18:17;103594.63;;;4.87;93.57
71043;BME280;58696;52.134;5.500;2023-02-04T05:20:45;103599.63;;;4.89;93.49
71043;BME280;58696;52.134;5.500;2023-02-04T05:23:12;103602.97;;;4.91;93.51
71043;BME280;58696;52.134;5.500;2023-02-04T05:25:42;103611.34;;;4.93;93.55
71043;BME280;58696;52.134;5.500;2023-02-04T05:28:13;103602.72;;;4.95;93.58
71043;BME280;58696;52.134;5.500;2023-02-04T05:30:40;103596.72;;;4.96;93.64
71043;BME280;58696;52.134;5.500;2023-02-04T05:33:07;103595.44;;;4.88;93.36
71043;BME280;58696;52.134;5.500;2023-02-04T05:35:33;103603.50;;;4.80;93.25
71043;BME280;58696;52.134;5.500;2023-02-04T05:38:00;103608.66;;;4.79;93.36
71043;BME280;58696;52.134;5.500;2023-02-04T05:40:26;103608.81;;;4.75;92.84
71043;BME280;58696;52.134;5.500;2023-02-04T05:42:53;103609.78;;;4.73;93.27
71043;BME280;58696;52.134;5.500;2023-02-04T05:45:24;103611.50;;;4.72;93.37
71043;BME280;58696;52.134;5.500;2023-02-04T05:47:51;103616.66;;;4.71;93.08
71043;BME280;58696;52.134;5.500;2023-02-04T05:50:20;103613.38;;;4.69;93.09
71043;BME280;58696;52.134;5.500;2023-02-04T05:52:47;103615.16;;;4.67;93.25
71043;BME280;58696;52.134;5.500;2023-02-04T05:55:14;103616.97;;;4.65;93.10
71043;BME280;58696;52.134;5.500;2023-02-04T05:57:40;103623.56;;;4.69;93.24
71043;BME280;58696;52.134;5.500;2023-02-04T06:00:10;103627.84;;;4.68;93.24
71043;BME280;58696;52.134;5.500;2023-02-04T06:02:37;103618.31;;;4.72;93.22
71043;BME280;58696;52.134;5.500;2023-02-04T06:05:05;103619.81;;;4.76;93.42
71043;BME280;58696;52.134;5.500;2023-02-04T06:07:34;103621.47;;;4.77;93.25
71043;BME280;58696;52.134;5.500;2023-02-04T06:10:04;103626.41;;;4.80;93.35
71043;BME280;58696;52.134;5.500;2023-02-04T06:12:31;103623.56;;;4.86;93.37
71043;BME280;58696;52.134;5.500;2023-02-04T06:14:58;103621.00;;;4.86;93.85
71043;BME280;58696;52.134;5.500;2023-02-04T06:17:26;103633.53;;;4.91;93.45
71043;BME280;58696;52.134;5.500;2023-02-04T06:19:53;103636.00;;;4.92;93.61
71043;BME280;58696;52.134;5.500;2023-02-04T06:22:21;103636.72;;;4.94;93.77
71043;BME280;58696;52.134;5.500;2023-02-04T06:24:50;103644.38;;;4.94;93.89
71043;BME280;58696;52.134;5.500;2023-02-04T06:27:19;103658.09;;;4.92;93.86
71043;BME280;58696;52.134;5.500;2023-02-04T06:29:50;103656.38;;;4.92;93.65
71043;BME280;58696;52.134;5.500;2023-02-04T06:32:17;103657.13;;;4.94;93.76
71043;BME280;58696;52.134;5.500;2023-02-04T06:34:45;103664.72;;;4.96;93.82
71043;BME280;58696;52.134;5.500;2023-02-04T06:37:11;103678.09;;;4.99;93.88
71043;BME280;58696;52.134;5.500;2023-02-04T06:39:39;103675.56;;;4.99;93.82
71043;BME280;58696;52.134;5.500;2023-02-04T06:42:06;103673.63;;;5.05;94.00
71043;BME280;58696;52.134;5.500;2023-02-04T06:44:33;103684.41;;;5.10;94.20
71043;BME280;58696;52.134;5.500;2023-02-04T06:47:02;103693.56;;;5.14;94.05
71043;BME280;58696;52.134;5.500;2023-02-04T06:49:28;103693.25;;;5.20;94.21
71043;BME280;58696;52.134;5.500;2023-02-04T06:51:57;103687.19;;;5.22;94.10
71043;BME280;58696;52.134;5.500;2023-02-04T06:54:23;103695.59;;;5.24;94.37
71043;BME280;58696;52.134;5.500;2023-02-04T06:56:50;103699.78;;;5.25;94.33
71043;BME280;58696;52.134;5.500;2023-02-04T06:59:19;103709.00;;;5.28;94.34
71043;BME280;58696;52.134;5.500;2023-02-04T07:01:46;103716.66;;;5.28;94.20
71043;BME280;58696;52.134;5.500;2023-02-04T07:04:13;103714.84;;;5.30;94.29
71043;BME280;58696;52.134;5.500;2023-02-04T07:06:42;103719.81;;;5.33;94.43
71043;BME280;58696;52.134;5.500;2023-02-04T07:09:09;103721.28;;;5.37;94.49
71043;BME280;58696;52.134;5.500;2023-02-04T07:11:35;103723.78;;;5.39;94.44
71043;BME280;58696;52.134;5.500;2023-02-04T07:14:04;103718.69;;;5.39;94.60
71043;BME280;58696;52.134;5.500;2023-02-04T07:16:30;103713.50;;;5.40;94.66
71043;BME280;58696;52.134;5.500;2023-02-04T07:19:00;103727.06;;;5.41;94.56
71043;BME280;58696;52.134;5.500;2023-02-04T07:21:28;103731.34;;;5.40;94.66
71043;BME280;58696;52.134;5.500;2023-02-04T07:24:03;103727.16;;;5.39;94.55
71043;BME280;58696;52.134;5.500;2023-02-04T07:26:29;103726.38;;;5.37;94.54
71043;BME280;58696;52.134;5.500;2023-02-04T07:28:56;103734.94;;;5.36;94.80
71043;BME280;58696;52.134;5.500;2023-02-04T07:31:23;103732.31;;;5.38;94.63
71043;BME280;58696;52.134;5.500;2023-02-04T07:33:52;103729.75;;;5.38;94.69
71043;BME280;58696;52.134;5.500;2023-02-04T07:36:19;103741.53;;;5.40;94.70
71043;BME280;58696;52.134;5.500;2023-02-04T07:38:48;103742.22;;;5.44;94.51
71043;BME280;58696;52.134;5.500;2023-02-04T07:41:15;103737.78;;;5.47;94.86
71043;BME280;58696;52.134;5.500;2023-02-04T07:43:43;103751.13;;;5.52;94.65
71043;BME280;58696;52.134;5.500;2023-02-04T07:46:10;103745.94;;;5.54;94.71
71043;BME280;58696;52.134;5.500;2023-02-04T07:48:37;103749.16;;;5.58;94.67
71043;BME280;58696;52.134;5.500;2023-02-04T07:51:04;103749.84;;;5.61;94.77
71043;BME280;58696;52.134;5.500;2023-02-04T07:53:30;103757.28;;;5.66;94.84
71043;BME280;58696;52.134;5.500;2023-02-04T07:55:57;103763.78;;;5.71;94.63
71043;BME280;58696;52.134;5.500;2023-02-04T07:58:26;103764.44;;;5.75;94.66
71043;BME280;58696;52.134;5.500;2023-02-04T08:00:56;103766.78;;;5.79;94.91
71043;BME280;58696;52.134;5.500;2023-02-04T08:03:22;103766.53;;;5.84;94.77
71043;BME280;58696;52.134;5.500;2023-02-04T08:05:58;103778.25;;;5.88;94.57
71043;BME280;58696;52.134;5.500;2023-02-04T08:08:28;103782.34;;;5.91;94.65
71043;BME280;58696;52.134;5.500;2023-02-04T08:10:55;103787.25;;;5.95;94.50
71043;BME280;58696;52.134;5.500;2023-02-04T08:13:23;103784.47;;;6.00;94.61
71043;BME280;58696;52.134;5.500;2023-02-04T08:15:52;103787.63;;;6.05;94.41
71043;BME280;58696;52.134;5.500;2023-02-04T08:18:19;103785.72;;;6.09;94.37
71043;BME280;58696;52.134;5.500;2023-02-04T08:20:46;103793.31;;;6.10;94.24
71043;BME280;58696;52.134;5.500;2023-02-04T08:23:13;103785.47;;;6.13;94.47
71043;BME280;58696;52.134;5.500;2023-02-04T08:25:39;103798.91;;;6.17;94.31
71043;BME280;58696;52.134;5.500;2023-02-04T08:28:06;103786.06;;;6.18;94.22
71043;BME280;58696;52.134;5.500;2023-02-04T08:30:33;103795.22;;;6.22;94.18
71043;BME280;58696;52.134;5.500;2023-02-04T08:33:03;103797.69;;;6.24;93.94
71043;BME280;58696;52.134;5.500;2023-02-04T08:35:30;103799.19;;;6.28;94.01
71043;BME280;58696;52.134;5.500;2023-02-04T08:37:57;103798.19;;;6.30;93.98
71043;BME280;58696;52.134;5.500;2023-02-04T08:40:27;103807.44;;;6.33;94.05
71043;BME280;58696;52.134;5.500;2023-02-04T08:42:54;103805.59;;;6.35;93.85
71043;BME280;58696;52.134;5.500;2023-02-04T08:45:21;103812.22;;;6.39;93.65
71043;BME280;58696;52.134;5.500;2023-02-04T08:47:47;103814.53;;;6.44;93.65
71043;BME280;58696;52.134;5.500;2023-02-04T08:50:14;103812.66;;;6.47;93.70
71043;BME280;58696;52.134;5.500;2023-02-04T08:52:41;103815.69;;;6.54;93.67
71043;BME280;58696;52.134;5.500;2023-02-04T08:55:07;103815.44;;;6.58;93.66
71043;BME280;58696;52.134;5.500;2023-02-04T08:57:34;103814.34;;;6.63;93.42
71043;BME280;58696;52.134;5.500;2023-02-04T09:00:03;103819.31;;;6.66;93.54
71043;BME280;58696;52.134;5.500;2023-02-04T09:02:30;103818.25;;;6.70;93.24
71043;BME280;58696;52.134;5.500;2023-02-04T09:04:56;103814.78;;;6.87;93.36
71043;BME280;58696;52.134;5.500;2023-02-04T09:07:23;103820.22;;;6.96;93.00
71043;BME280;58696;52.134;5.500;2023-02-04T09:09:49;103823.56;;;7.13;92.91
71043;BME280;58696;52.134;5.500;2023-02-04T09:12:16;103822.13;;;7.23;92.70
71043;BME280;58696;52.134;5.500;2023-02-04T09:14:46;103821.81;;;7.29;92.36
71043;BME280;58696;52.134;5.500;2023-02-04T09:17:12;103829.59;;;7.42;92.22
71043;BME280;58696;52.134;5.500;2023-02-04T09:19:41;103831.91;;;7.46;91.97
71043;BME280;58696;52.134;5.500;2023-02-04T09:22:08;103826.97;;;7.57;91.82
71043;BME280;58696;52.134;5.500;2023-02-04T09:24:35;103824.16;;;7.76;91.72
71043;BME280;58696;52.134;5.500;2023-02-04T09:27:01;103832.41;;;7.81;91.43
71043;BME280;58696;52.134;5.500;2023-02-04T09:29:29;103831.59;;;7.81;91.18
71043;BME280;58696;52.134;5.500;2023-02-04T09:31:58;103834.16;;;7.81;91.15
71043;BME280;58696;52.134;5.500;2023-02-04T09:34:25;103831.38;;;7.70;91.06
71043;BME280;58696;52.134;5.500;2023-02-04T09:36:54;103830.72;;;7.66;90.95
71043;BME280;58696;52.134;5.500;2023-02-04T09:39:21;103833.38;;;7.64;91.21
71043;BME280;58696;52.134;5.500;2023-02-04T09:41:47;103825.63;;;7.66;91.25
71043;BME280;58696;52.134;5.500;2023-02-04T09:44:16;103825.00;;;7.77;91.00
71043;BME280;58696;52.134;5.500;2023-02-04T09:46:45;103827.56;;;7.91;90.98
71043;BME280;58696;52.134;5.500;2023-02-04T09:49:13;103825.66;;;7.95;90.75
71043;BME280;58696;52.134;5.500;2023-02-04T09:51:39;103831.25;;;8.01;90.66
71043;BME280;58696;52.134;5.500;2023-02-04T09:54:16;103833.81;;;8.15;90.47
71043;BME280;58696;52.134;5.500;2023-02-04T09:56:44;103838.00;;;8.31;90.15
71043;BME280;58696;52.134;5.500;2023-02-04T09:59:11;103840.75;;;8.42;89.82
71043;BME280;58696;52.134;5.500;2023-02-04T10:01:38;103843.63;;;8.79;89.44
71043;BME280;58696;52.134;5.500;2023-02-04T10:04:07;103847.28;;;9.02;88.86
71043;BME280;58696;52.134;5.500;2023-02-04T10:06:35;103842.75;;;9.19;88.40
71043;BME280;58696;52.134;5.500;2023-02-04T10:09:02;103855.38;;;9.22;87.87
71043;BME280;58696;52.134;5.500;2023-02-04T10:11:30;103846.91;;;9.47;87.83
71043;BME280;58696;52.134;5.500;2023-02-04T10:14:00;103854.13;;;9.81;86.39
71043;BME280;58696;52.134;5.500;2023-02-04T10:16:29;103852.56;;;10.16;85.18
71043;BME280;58696;52.134;5.500;2023-02-04T10:19:00;103850.94;;;9.90;84.86
71043;BME280;58696;52.134;5.500;2023-02-04T10:21:28;103855.03;;;10.31;84.37
71043;BME280;58696;52.134;5.500;2023-02-04T10:23:58;103853.84;;;10.60;82.90
71043;BME280;58696;52.134;5.500;2023-02-04T10:26:26;103851.41;;;11.42;80.96
71043;BME280;58696;52.134;5.500;2023-02-04T10:34:02;103850.28;;;11.79;78.48
71043;BME280;58696;52.134;5.500;2023-02-04T10:36:29;103860.81;;;11.65;78.73
71043;BME280;58696;52.134;5.500;2023-02-04T10:39:00;103862.63;;;11.52;78.39
71043;BME280;58696;52.134;5.500;2023-02-04T10:41:26;103865.97;;;10.95;79.91
71043;BME280;58696;52.134;5.500;2023-02-04T10:44:03;103866.16;;;10.92;80.56
71043;BME280;58696;52.134;5.500;2023-02-04T10:46:30;103861.78;;;11.05;80.05
71043;BME280;58696;52.134;5.500;2023-02-04T10:48:57;103865.09;;;11.42;79.45
71043;BME280;58696;52.134;5.500;2023-02-04T10:51:24;103858.91;;;11.56;79.78
71043;BME280;58696;52.134;5.500;2023-02-04T10:53:55;103870.34;;;11.87;79.16
71043;BME280;58696;52.134;5.500;2023-02-04T10:56:40;103870.59;;;12.18;78.25
71043;BME280;58696;52.134;5.500;2023-02-04T10:59:12;103861.56;;;12.34;76.98
71043;BME280;58696;52.134;5.500;2023-02-04T11:01:43;103864.16;;;12.23;77.51
71043;BME280;58696;52.134;5.500;2023-02-04T11:04:09;103854.31;;;11.95;76.41
71043;BME280;58696;52.134;5.500;2023-02-04T11:06:36;103865.19;;;11.87;75.54
71043;BME280;58696;52.134;5.500;2023-02-04T11:09:03;103867.78;;;11.87;75.43
71043;BME280;58696;52.134;5.500;2023-02-04T11:14:55;103873.13;;;11.26;75.68
71043;BME280;58696;52.134;5.500;2023-02-04T11:17:28;103873.38;;;11.35;77.21
71043;BME280;58696;52.134;5.500;2023-02-04T11:19:56;103863.56;;;12.08;75.45
71043;BME280;58696;52.134;5.500;2023-02-04T11:22:36;103869.28;;;12.57;74.19
71043;BME280;58696;52.134;5.500;2023-02-04T11:27:54;103866.47;;;12.37;73.99
71043;BME280;58696;52.134;5.500;2023-02-04T11:30:21;103859.09;;;12.22;74.17
71043;BME280;58696;52.134;5.500;2023-02-04T11:32:55;103861.69;;;12.10;73.62
71043;BME280;58696;52.134;5.500;2023-02-04T11:35:30;103858.41;;;12.31;72.54
71043;BME280;58696;52.134;5.500;2023-02-04T11:37:58;103853.63;;;12.70;71.54
71043;BME280;58696;52.134;5.500;2023-02-04T11:40:32;103857.19;;;12.57;71.62
71043;BME280;58696;52.134;5.500;2023-02-04T11:43:08;103851.59;;;12.84;71.09
71043;BME280;58696;52.134;5.500;2023-02-04T11:45:38;103848.66;;;13.21;70.15
71043;BME280;58696;52.134;5.500;2023-02-04T11:48:10;103848.84;;;13.29;69.64
71043;BME280;58696;52.134;5.500;2023-02-04T11:50:40;103852.50;;;13.27;69.99
71043;BME280;58696;52.134;5.500;2023-02-04T11:53:09;103848.78;;;13.40;68.89
71043;BME280;58696;52.134;5.500;2023-02-04T11:55:43;103852.97;;;13.00;69.02
71043;BME280;58696;52.134;5.500;2023-02-04T11:58:17;103851.28;;;12.67;71.31
71043;BME280;58696;52.134;5.500;2023-02-04T12:00:44;103847.72;;;13.22;70.26
71043;BME280;58696;52.134;5.500;2023-02-04T12:03:25;103857.34;;;13.62;70.77
71043;BME280;58696;52.134;5.500;2023-02-04T12:05:52;103844.41;;;13.20;69.21
71043;BME280;58696;52.134;5.500;2023-02-04T12:13:17;103855.31;;;12.92;69.18
71043;BME280;58696;52.134;5.500;2023-02-04T12:16:00;103848.03;;;13.29;69.42
71043;BME280;58696;52.134;5.500;2023-02-04T12:18:28;103852.97;;;13.21;72.03
71043;BME280;58696;52.134;5.500;2023-02-04T12:20:58;103862.47;;;13.20;70.55
71043;BME280;58696;52.134;5.500;2023-02-04T12:23:26;103863.78;;;12.82;71.46
71043;BME280;58696;52.134;5.500;2023-02-04T12:25:53;103858.06;;;12.79;69.04
71043;BME280;58696;52.134;5.500;2023-02-04T12:28:20;103861.16;;;12.94;66.26
71043;BME280;58696;52.134;5.500;2023-02-04T12:30:47;103856.63;;;12.86;70.94
71043;BME280;58696;52.134;5.500;2023-02-04T12:33:14;103853.84;;;12.34;68.53
71043;BME280;58696;52.134;5.500;2023-02-04T12:35:40;103860.38;;;12.27;69.77
71043;BME280;58696;52.134;5.500;2023-02-04T12:38:07;103863.06;;;11.81;71.83
71043;BME280;58696;52.134;5.500;2023-02-04T12:40:34;103865.03;;;11.66;71.08
71043;BME280;58696;52.134;5.500;2023-02-04T12:43:03;103858.34;;;11.64;70.51
71043;BME280;58696;52.134;5.500;2023-02-04T12:45:33;103853.50;;;11.37;69.10
71043;BME280;58696;52.134;5.500;2023-02-04T12:48:00;103862.09;;;11.24;69.17
71043;BME280;58696;52.134;5.500;2023-02-04T12:50:26;103853.25;;;11.04;70.62
71043;BME280;58696;52.134;5.500;2023-02-04T12:52:54;103863.78;;;10.65;70.55
71043;BME280;58696;52.134;5.500;2023-02-04T12:55:25;103860.34;;;10.53;70.84
71043;BME280;58696;52.134;5.500;2023-02-04T12:57:54;103864.28;;;10.46;71.27
71043;BME280;58696;52.134;5.500;2023-02-04T13:00:22;103865.94;;;10.34;71.25
71043;BME280;58696;52.134;5.500;2023-02-04T13:02:48;103862.97;;;10.27;71.77
71043;BME280;58696;52.134;5.500;2023-02-04T13:05:15;103855.53;;;10.36;71.99
71043;BME280;58696;52.134;5.500;2023-02-04T13:07:46;103858.53;;;10.30;72.20
71043;BME280;58696;52.134;5.500;2023-02-04T13:10:12;103851.25;;;10.23;72.53
71043;BME280;58696;52.134;5.500;2023-02-04T13:12:39;103851.84;;;10.14;72.19
71043;BME280;58696;52.134;5.500;2023-02-04T13:15:07;103849.00;;;10.06;71.98
71043;BME280;58696;52.134;5.500;2023-02-04T13:17:33;103851.13;;;10.12;72.09
71043;BME280;58696;52.134;5.500;2023-02-04T13:20:00;103846.00;;;10.12;72.23
71043;BME280;58696;52.134;5.500;2023-02-04T13:22:26;103847.75;;;10.12;72.28